sensor_id;sensor_type;location;lat;lon;timestamp;temperature;humidity
56861;DHT22;42744;51.094;3.490;2022-12-07T00:01:18;4.70;99.90
56861;DHT22;42744;51.094;3.490;2022-12-07T00:03:46;4.70;99.90
56861;DHT22;42744;51.094;3.490;2022-12-07T00:06:14;4.60;99.90
56861;DHT22;42744;51.094;3.490;2022-12-07T00:08:40;4.50;99.90
56861;DHT22;42744;51.094;3.490;2022-12-07T00:11:10;4.40;99.90
56861;DHT22;42744;51.094;3.490;2022-12-07T00:13:37;4.30;99.90
56861;DHT22;42744;51.094;3.490;2022-12-07T00:16:05;4.30;99.90
56861;DHT22;42744;51.094;3.490;2022-12-07T00:18:32;4.20;99.90
56861;DHT22;42744;51.094;3.490;2022-12-07T00:21:08;4.20;99.90
56861;DHT22;42744;51.094;3.490;2022-12-07T00:23:34;4.20;99.90
56861;DHT22;42744;51.094;3.490;2022-12-07T00:26:09;4.10;99.90
56861;DHT22;42744;51.094;3.490;2022-12-07T00:28:35;4.10;99.90
56861;DHT22;42744;51.094;3.490;2022-12-07T00:31:07;4.10;99.90
56861;DHT22;42744;51.094;3.490;2022-12-07T00:33:34;4.10;99.90
56861;DHT22;42744;51.094;3.490;2022-12-07T00:36:01;4.10;99.90
56861;DHT22;42744;51.094;3.490;2022-12-07T00:38:29;4.10;99.90
56861;DHT22;42744;51.094;3.490;2022-12-07T00:41:01;4.00;99.90
56861;DHT22;42744;51.094;3.490;2022-12-07T00:43:27;4.00;99.90
56861;DHT22;42744;51.094;3.490;2022-12-07T00:45:54;4.00;99.90
56861;DHT22;42744;51.094;3.490;2022-12-07T00:48:21;3.90;99.90
56861;DHT22;42744;51.094;3.490;2022-12-07T00:50:47;3.90;99.90
56861;DHT22;42744;51.094;3.490;2022-12-07T00:53:13;3.90;99.90
56861;DHT22;42744;51.094;3.490;2022-12-07T00:55:39;3.90;99.90
56861;DHT22;42744;51.094;3.490;2022-12-07T00:58:06;3.80;99.90
56861;DHT22;42744;51.094;3.490;2022-12-07T01:00:32;3.90;99.90
56861;DHT22;42744;51.094;3.490;2022-12-07T01:02:59;3.90;99.90
56861;DHT22;42744;51.094;3.490;2022-12-07T01:05:25;3.90;99.90
56861;DHT22;42744;51.094;3.490;2022-12-07T01:07:51;4.00;99.90
56861;DHT22;42744;51.094;3.490;2022-12-07T01:10:18;4.00;99.90
56861;DHT22;42744;51.094;3.490;2022-12-07T01:12:44;4.10;99.90
56861;DHT22;42744;51.094;3.490;2022-12-07T01:15:10;4.10;99.90
56861;DHT22;42744;51.094;3.490;2022-12-07T01:17:36;4.20;99.90
56861;DHT22;42744;51.094;3.490;2022-12-07T01:20:03;4.20;99.90
56861;DHT22;42744;51.094;3.490;2022-12-07T01:22:29;4.20;99.90
56861;DHT22;42744;51.094;3.490;2022-12-07T01:24:55;4.30;99.90
56861;DHT22;42744;51.094;3.490;2022-12-07T01:27:21;4.30;99.90
56861;DHT22;42744;51.094;3.490;2022-12-07T01:29:47;4.40;99.90
56861;DHT22;42744;51.094;3.490;2022-12-07T01:32:13;4.30;99.90
56861;DHT22;42744;51.094;3.490;2022-12-07T01:34:39;4.40;99.90
56861;DHT22;42744;51.094;3.490;2022-12-07T01:37:05;4.40;99.90
56861;DHT22;42744;51.094;3.490;2022-12-07T01:39:30;4.40;99.90
56861;DHT22;42744;51.094;3.490;2022-12-07T01:41:57;4.40;99.90
56861;DHT22;42744;51.094;3.490;2022-12-07T01:46:57;4.40;99.90
56861;DHT22;42744;51.094;3.490;2022-12-07T01:51:55;4.50;99.90
56861;DHT22;42744;51.094;3.490;2022-12-07T01:54:23;4.50;99.90
56861;DHT22;42744;51.094;3.490;2022-12-07T01:56:52;4.40;99.90
56861;DHT22;42744;51.094;3.490;2022-12-07T01:59:21;4.40;99.90
56861;DHT22;42744;51.094;3.490;2022-12-07T02:01:49;4.30;99.90
56861;DHT22;42744;51.094;3.490;2022-12-07T02:04:18;4.30;99.90
56861;DHT22;42744;51.094;3.490;2022-12-07T02:06:45;4.20;99.90
56861;DHT22;42744;51.094;3.490;2022-12-07T02:09:11;4.10;99.90
56861;DHT22;42744;51.094;3.490;2022-12-07T02:11:38;4.10;99.90
56861;DHT22;42744;51.094;3.490;2022-12-07T02:14:05;4.00;99.90
56861;DHT22;42744;51.094;3.490;2022-12-07T02:22:24;3.70;99.90
56861;DHT22;42744;51.094;3.490;2022-12-07T02:28:05;3.60;99.90
56861;DHT22;42744;51.094;3.490;2022-12-07T02:30:40;3.60;99.90
56861;DHT22;42744;51.094;3.490;2022-12-07T02:33:23;3.60;99.90
56861;DHT22;42744;51.094;3.490;2022-12-07T02:36:28;3.70;99.90
56861;DHT22;42744;51.094;3.490;2022-12-07T02:39:06;3.70;99.90
56861;DHT22;42744;51.094;3.490;2022-12-07T02:41:43;3.70;99.90
56861;DHT22;42744;51.094;3.490;2022-12-07T02:44:14;3.70;99.90
56861;DHT22;42744;51.094;3.490;2022-12-07T02:46:46;3.70;99.90
56861;DHT22;42744;51.094;3.490;2022-12-07T02:49:15;3.70;99.90
56861;DHT22;42744;51.094;3.490;2022-12-07T02:51:43;3.60;99.90
56861;DHT22;42744;51.094;3.490;2022-12-07T02:54:16;3.60;99.90
56861;DHT22;42744;51.094;3.490;2022-12-07T03:04:26;3.60;99.90
56861;DHT22;42744;51.094;3.490;2022-12-07T03:07:11;3.60;99.90
56861;DHT22;42744;51.094;3.490;2022-12-07T03:09:51;3.60;99.90
56861;DHT22;42744;51.094;3.490;2022-12-07T03:12:29;3.60;99.90
56861;DHT22;42744;51.094;3.490;2022-12-07T03:15:20;3.70;99.90
56861;DHT22;42744;51.094;3.490;2022-12-07T03:17:48;3.70;99.90
56861;DHT22;42744;51.094;3.490;2022-12-07T03:20:19;3.80;99.90
56861;DHT22;42744;51.094;3.490;2022-12-07T03:22:47;3.80;99.90
56861;DHT22;42744;51.094;3.490;2022-12-07T03:25:16;3.80;99.90
56861;DHT22;42744;51.094;3.490;2022-12-07T03:27:49;3.80;99.90
56861;DHT22;42744;51.094;3.490;2022-12-07T03:30:21;3.70;99.90
56861;DHT22;42744;51.094;3.490;2022-12-07T03:33:15;3.70;99.90
56861;DHT22;42744;51.094;3.490;2022-12-07T03:35:49;3.70;99.90
56861;DHT22;42744;51.094;3.490;2022-12-07T03:38:48;3.70;99.90
56861;DHT22;42744;51.094;3.490;2022-12-07T03:41:24;3.70;99.90
56861;DHT22;42744;51.094;3.490;2022-12-07T03:43:51;3.70;99.90
56861;DHT22;42744;51.094;3.490;2022-12-07T03:49:25;3.70;99.90
56861;DHT22;42744;51.094;3.490;2022-12-07T03:57:01;3.60;99.90
56861;DHT22;42744;51.094;3.490;2022-12-07T03:59:28;3.60;99.90
56861;DHT22;42744;51.094;3.490;2022-12-07T04:01:57;3.60;99.90
56861;DHT22;42744;51.094;3.490;2022-12-07T04:04:27;3.60;99.90
56861;DHT22;42744;51.094;3.490;2022-12-07T04:06:54;3.50;99.90
56861;DHT22;42744;51.094;3.490;2022-12-07T04:09:20;3.50;99.90
56861;DHT22;42744;51.094;3.490;2022-12-07T04:11:46;3.50;99.90
56861;DHT22;42744;51.094;3.490;2022-12-07T04:14:12;3.50;99.90
56861;DHT22;42744;51.094;3.490;2022-12-07T04:16:49;3.40;99.90
56861;DHT22;42744;51.094;3.490;2022-12-07T04:19:17;3.40;99.90
56861;DHT22;42744;51.094;3.490;2022-12-07T04:21:43;3.30;99.90
56861;DHT22;42744;51.094;3.490;2022-12-07T04:24:11;3.20;99.90
56861;DHT22;42744;51.094;3.490;2022-12-07T04:26:37;3.30;99.90
56861;DHT22;42744;51.094;3.490;2022-12-07T04:29:03;3.30;99.90
56861;DHT22;42744;51.094;3.490;2022-12-07T04:31:29;3.40;99.90
56861;DHT22;42744;51.094;3.490;2022-12-07T04:33:55;3.40;99.90
56861;DHT22;42744;51.094;3.490;2022-12-07T04:36:21;3.40;99.90
56861;DHT22;42744;51.094;3.490;2022-12-07T04:38:47;3.50;99.90
56861;DHT22;42744;51.094;3.490;2022-12-07T04:41:13;3.50;99.90
56861;DHT22;42744;51.094;3.490;2022-12-07T04:43:39;3.50;99.90
56861;DHT22;42744;51.094;3.490;2022-12-07T04:46:05;3.50;99.90
56861;DHT22;42744;51.094;3.490;2022-12-07T04:48:31;3.50;99.90
56861;DHT22;42744;51.094;3.490;2022-12-07T04:50:57;3.50;99.90
56861;DHT22;42744;51.094;3.490;2022-12-07T04:53:23;3.40;99.90
56861;DHT22;42744;51.094;3.490;2022-12-07T04:55:49;3.50;99.90
56861;DHT22;42744;51.094;3.490;2022-12-07T04:58:15;3.50;99.90
56861;DHT22;42744;51.094;3.490;2022-12-07T05:00:41;3.40;99.90
56861;DHT22;42744;51.094;3.490;2022-12-07T05:03:07;3.50;99.90
56861;DHT22;42744;51.094;3.490;2022-12-07T05:05:33;3.40;99.90
56861;DHT22;42744;51.094;3.490;2022-12-07T05:07:59;3.40;99.90
56861;DHT22;42744;51.094;3.490;2022-12-07T05:10:25;3.40;99.90
56861;DHT22;42744;51.094;3.490;2022-12-07T05:12:51;3.40;99.90
56861;DHT22;42744;51.094;3.490;2022-12-07T05:15:17;3.40;99.90
56861;DHT22;42744;51.094;3.490;2022-12-07T05:17:44;3.40;99.90
56861;DHT22;42744;51.094;3.490;2022-12-07T05:20:10;3.30;99.90
56861;DHT22;42744;51.094;3.490;2022-12-07T05:22:36;3.30;99.90
56861;DHT22;42744;51.094;3.490;2022-12-07T05:25:02;3.30;99.90
56861;DHT22;42744;51.094;3.490;2022-12-07T05:27:28;3.30;99.90
56861;DHT22;42744;51.094;3.490;2022-12-07T05:29:54;3.30;99.90
56861;DHT22;42744;51.094;3.490;2022-12-07T05:32:20;3.30;99.90
56861;DHT22;42744;51.094;3.490;2022-12-07T05:34:46;3.30;99.90
56861;DHT22;42744;51.094;3.490;2022-12-07T05:37:12;3.30;99.90
56861;DHT22;42744;51.094;3.490;2022-12-07T05:39:38;3.20;99.90
56861;DHT22;42744;51.094;3.490;2022-12-07T05:42:06;3.20;99.90
56861;DHT22;42744;51.094;3.490;2022-12-07T05:44:46;3.20;99.90
56861;DHT22;42744;51.094;3.490;2022-12-07T05:47:13;3.20;99.90
56861;DHT22;42744;51.094;3.490;2022-12-07T05:49:40;3.10;99.90
56861;DHT22;42744;51.094;3.490;2022-12-07T05:52:06;3.10;99.90
56861;DHT22;42744;51.094;3.490;2022-12-07T05:54:33;3.10;99.90
56861;DHT22;42744;51.094;3.490;2022-12-07T05:57:01;3.10;99.90
56861;DHT22;42744;51.094;3.490;2022-12-07T05:59:27;3.10;99.90
56861;DHT22;42744;51.094;3.490;2022-12-07T06:01:58;3.10;99.90
56861;DHT22;42744;51.094;3.490;2022-12-07T06:04:28;3.10;99.90
56861;DHT22;42744;51.094;3.490;2022-12-07T06:06:55;3.00;99.90
56861;DHT22;42744;51.094;3.490;2022-12-07T06:09:22;3.00;99.90
56861;DHT22;42744;51.094;3.490;2022-12-07T06:11:49;3.00;99.90
56861;DHT22;42744;51.094;3.490;2022-12-07T06:14:33;3.00;99.90
56861;DHT22;42744;51.094;3.490;2022-12-07T06:17:00;2.90;99.90
56861;DHT22;42744;51.094;3.490;2022-12-07T06:19:25;2.90;99.90
56861;DHT22;42744;51.094;3.490;2022-12-07T06:21:51;3.00;99.90
56861;DHT22;42744;51.094;3.490;2022-12-07T06:24:18;3.00;99.90
56861;DHT22;42744;51.094;3.490;2022-12-07T06:26:44;3.10;99.90
56861;DHT22;42744;51.094;3.490;2022-12-07T06:29:11;3.20;99.90
56861;DHT22;42744;51.094;3.490;2022-12-07T06:31:37;3.20;99.90
56861;DHT22;42744;51.094;3.490;2022-12-07T06:34:06;3.20;99.90
56861;DHT22;42744;51.094;3.490;2022-12-07T06:36:33;3.30;99.90
56861;DHT22;42744;51.094;3.490;2022-12-07T06:38:59;3.30;99.90
56861;DHT22;42744;51.094;3.490;2022-12-07T06:41:25;3.30;99.90
56861;DHT22;42744;51.094;3.490;2022-12-07T06:43:51;3.30;99.90
56861;DHT22;42744;51.094;3.490;2022-12-07T06:46:18;3.40;99.90
56861;DHT22;42744;51.094;3.490;2022-12-07T06:48:44;3.40;99.90
56861;DHT22;42744;51.094;3.490;2022-12-07T06:51:10;3.50;99.90
56861;DHT22;42744;51.094;3.490;2022-12-07T06:53:36;3.50;99.90
56861;DHT22;42744;51.094;3.490;2022-12-07T06:56:04;3.40;99.90
56861;DHT22;42744;51.094;3.490;2022-12-07T06:58:30;3.40;99.90
56861;DHT22;42744;51.094;3.490;2022-12-07T07:00:56;3.50;99.90
56861;DHT22;42744;51.094;3.490;2022-12-07T07:03:22;3.50;99.90
56861;DHT22;42744;51.094;3.490;2022-12-07T07:05:48;3.50;99.90
56861;DHT22;42744;51.094;3.490;2022-12-07T07:08:14;3.50;99.90
56861;DHT22;42744;51.094;3.490;2022-12-07T07:10:41;3.50;99.90
56861;DHT22;42744;51.094;3.490;2022-12-07T07:13:07;3.60;99.90
56861;DHT22;42744;51.094;3.490;2022-12-07T07:15:34;3.60;99.90
56861;DHT22;42744;51.094;3.490;2022-12-07T07:18:00;3.60;99.90
56861;DHT22;42744;51.094;3.490;2022-12-07T07:20:26;3.60;99.90
56861;DHT22;42744;51.094;3.490;2022-12-07T07:22:55;3.60;99.90
56861;DHT22;42744;51.094;3.490;2022-12-07T07:25:21;3.50;99.90
56861;DHT22;42744;51.094;3.490;2022-12-07T07:27:47;3.50;99.90
56861;DHT22;42744;51.094;3.490;2022-12-07T07:30:13;3.40;99.90
56861;DHT22;42744;51.094;3.490;2022-12-07T07:32:39;3.30;99.90
56861;DHT22;42744;51.094;3.490;2022-12-07T07:35:05;3.30;99.90
56861;DHT22;42744;51.094;3.490;2022-12-07T07:37:32;3.20;99.90
56861;DHT22;42744;51.094;3.490;2022-12-07T07:39:57;3.20;99.90
56861;DHT22;42744;51.094;3.490;2022-12-07T07:42:23;3.20;99.90
56861;DHT22;42744;51.094;3.490;2022-12-07T07:44:49;3.20;99.90
56861;DHT22;42744;51.094;3.490;2022-12-07T07:47:15;3.20;99.90
56861;DHT22;42744;51.094;3.490;2022-12-07T07:49:41;3.30;99.90
56861;DHT22;42744;51.094;3.490;2022-12-07T07:52:07;3.30;99.90
56861;DHT22;42744;51.094;3.490;2022-12-07T07:54:33;3.40;99.90
56861;DHT22;42744;51.094;3.490;2022-12-07T07:56:59;3.40;99.90
56861;DHT22;42744;51.094;3.490;2022-12-07T07:59:25;3.50;99.90
56861;DHT22;42744;51.094;3.490;2022-12-07T08:01:51;3.50;99.90
56861;DHT22;42744;51.094;3.490;2022-12-07T08:04:17;3.50;99.90
56861;DHT22;42744;51.094;3.490;2022-12-07T08:06:43;3.60;99.90
56861;DHT22;42744;51.094;3.490;2022-12-07T08:09:09;3.60;99.90
56861;DHT22;42744;51.094;3.490;2022-12-07T08:11:36;3.60;99.90
56861;DHT22;42744;51.094;3.490;2022-12-07T08:14:02;3.70;99.90
56861;DHT22;42744;51.094;3.490;2022-12-07T08:16:28;3.70;99.90
56861;DHT22;42744;51.094;3.490;2022-12-07T08:18:55;3.70;99.90
56861;DHT22;42744;51.094;3.490;2022-12-07T08:21:21;3.70;99.90
56861;DHT22;42744;51.094;3.490;2022-12-07T08:23:47;3.70;99.90
56861;DHT22;42744;51.094;3.490;2022-12-07T08:26:16;3.70;99.90
56861;DHT22;42744;51.094;3.490;2022-12-07T08:28:42;3.80;99.90
56861;DHT22;42744;51.094;3.490;2022-12-07T08:31:15;3.80;99.90
56861;DHT22;42744;51.094;3.490;2022-12-07T08:33:41;3.80;99.90
56861;DHT22;42744;51.094;3.490;2022-12-07T08:36:09;3.90;99.90
56861;DHT22;42744;51.094;3.490;2022-12-07T08:38:37;3.90;99.90
56861;DHT22;42744;51.094;3.490;2022-12-07T08:41:03;3.90;99.90
56861;DHT22;42744;51.094;3.490;2022-12-07T08:43:29;4.00;99.90
56861;DHT22;42744;51.094;3.490;2022-12-07T08:46:19;4.00;99.90
56861;DHT22;42744;51.094;3.490;2022-12-07T08:48:55;4.00;99.90
56861;DHT22;42744;51.094;3.490;2022-12-07T08:51:22;4.00;99.90
56861;DHT22;42744;51.094;3.490;2022-12-07T08:53:50;4.00;99.90
56861;DHT22;42744;51.094;3.490;2022-12-07T08:56:16;4.00;99.90
56861;DHT22;42744;51.094;3.490;2022-12-07T08:58:42;4.00;99.90
56861;DHT22;42744;51.094;3.490;2022-12-07T09:01:09;4.00;99.90
56861;DHT22;42744;51.094;3.490;2022-12-07T09:03:35;4.00;99.90
56861;DHT22;42744;51.094;3.490;2022-12-07T09:06:01;4.10;99.90
56861;DHT22;42744;51.094;3.490;2022-12-07T09:08:34;4.20;99.90
56861;DHT22;42744;51.094;3.490;2022-12-07T09:11:01;4.40;99.90
56861;DHT22;42744;51.094;3.490;2022-12-07T09:13:28;4.50;99.90
56861;DHT22;42744;51.094;3.490;2022-12-07T09:15:54;4.70;99.90
56861;DHT22;42744;51.094;3.490;2022-12-07T09:18:19;5.00;99.90
56861;DHT22;42744;51.094;3.490;2022-12-07T09:20:46;5.20;99.90
56861;DHT22;42744;51.094;3.490;2022-12-07T09:23:12;5.20;99.90
56861;DHT22;42744;51.094;3.490;2022-12-07T09:25:37;5.20;99.90
56861;DHT22;42744;51.094;3.490;2022-12-07T09:28:04;5.20;99.90
56861;DHT22;42744;51.094;3.490;2022-12-07T09:30:30;5.20;99.90
56861;DHT22;42744;51.094;3.490;2022-12-07T09:32:56;5.20;99.90
56861;DHT22;42744;51.094;3.490;2022-12-07T09:35:24;5.10;99.90
56861;DHT22;42744;51.094;3.490;2022-12-07T09:37:50;5.10;99.90
56861;DHT22;42744;51.094;3.490;2022-12-07T09:40:17;5.00;99.90
56861;DHT22;42744;51.094;3.490;2022-12-07T09:42:48;5.00;99.90
56861;DHT22;42744;51.094;3.490;2022-12-07T09:45:39;5.00;99.90
56861;DHT22;42744;51.094;3.490;2022-12-07T09:48:08;5.00;99.90
56861;DHT22;42744;51.094;3.490;2022-12-07T09:50:39;5.00;99.90
56861;DHT22;42744;51.094;3.490;2022-12-07T09:53:30;5.20;99.90
56861;DHT22;42744;51.094;3.490;2022-12-07T09:55:55;5.50;99.90
56861;DHT22;42744;51.094;3.490;2022-12-07T09:58:26;5.60;99.90
56861;DHT22;42744;51.094;3.490;2022-12-07T10:00:55;5.70;99.90
56861;DHT22;42744;51.094;3.490;2022-12-07T10:03:23;5.70;99.90
56861;DHT22;42744;51.094;3.490;2022-12-07T10:05:50;5.70;99.90
56861;DHT22;42744;51.094;3.490;2022-12-07T10:08:17;5.70;99.90
56861;DHT22;42744;51.094;3.490;2022-12-07T10:10:45;5.60;99.90
56861;DHT22;42744;51.094;3.490;2022-12-07T10:13:13;5.60;99.90
56861;DHT22;42744;51.094;3.490;2022-12-07T10:20:47;5.60;99.90
56861;DHT22;42744;51.094;3.490;2022-12-07T10:23:17;5.60;99.90
56861;DHT22;42744;51.094;3.490;2022-12-07T10:25:44;5.70;99.90
56861;DHT22;42744;51.094;3.490;2022-12-07T10:28:14;5.70;99.90
56861;DHT22;42744;51.094;3.490;2022-12-07T10:31:01;6.00;99.90
56861;DHT22;42744;51.094;3.490;2022-12-07T10:33:36;6.30;99.90
56861;DHT22;42744;51.094;3.490;2022-12-07T10:36:29;6.50;99.90
56861;DHT22;42744;51.094;3.490;2022-12-07T10:39:09;6.50;99.90
56861;DHT22;42744;51.094;3.490;2022-12-07T10:44:30;6.50;99.90
56861;DHT22;42744;51.094;3.490;2022-12-07T10:52:16;6.60;99.90
56861;DHT22;42744;51.094;3.490;2022-12-07T11:00:25;6.80;99.90
56861;DHT22;42744;51.094;3.490;2022-12-07T11:03:20;7.00;99.90
56861;DHT22;42744;51.094;3.490;2022-12-07T11:06:12;7.30;99.90
56861;DHT22;42744;51.094;3.490;2022-12-07T11:09:16;7.50;99.90
56861;DHT22;42744;51.094;3.490;2022-12-07T11:11:42;7.70;99.90
56861;DHT22;42744;51.094;3.490;2022-12-07T11:14:33;7.60;99.90
56861;DHT22;42744;51.094;3.490;2022-12-07T11:17:07;7.70;99.90
56861;DHT22;42744;51.094;3.490;2022-12-07T11:26:05;8.50;99.90
56861;DHT22;42744;51.094;3.490;2022-12-07T11:28:59;8.30;99.90
56861;DHT22;42744;51.094;3.490;2022-12-07T11:36:55;7.80;99.90
56861;DHT22;42744;51.094;3.490;2022-12-07T11:39:26;7.70;99.90
56861;DHT22;42744;51.094;3.490;2022-12-07T11:42:14;7.70;99.90
56861;DHT22;42744;51.094;3.490;2022-12-07T11:47:47;7.70;99.90
56861;DHT22;42744;51.094;3.490;2022-12-07T11:55:43;7.90;99.90
56861;DHT22;42744;51.094;3.490;2022-12-07T11:58:21;8.30;99.90
56861;DHT22;42744;51.094;3.490;2022-12-07T12:00:55;8.60;99.90
56861;DHT22;42744;51.094;3.490;2022-12-07T12:03:32;8.50;99.90
56861;DHT22;42744;51.094;3.490;2022-12-07T12:05:59;8.30;99.90
56861;DHT22;42744;51.094;3.490;2022-12-07T12:08:32;8.20;99.90
56861;DHT22;42744;51.094;3.490;2022-12-07T12:11:20;8.00;99.90
56861;DHT22;42744;51.094;3.490;2022-12-07T12:14:21;7.90;99.90
56861;DHT22;42744;51.094;3.490;2022-12-07T12:22:19;7.80;99.90
56861;DHT22;42744;51.094;3.490;2022-12-07T12:24:51;7.80;99.90
56861;DHT22;42744;51.094;3.490;2022-12-07T12:27:31;7.80;99.90
56861;DHT22;42744;51.094;3.490;2022-12-07T12:29:59;7.80;99.90
56861;DHT22;42744;51.094;3.490;2022-12-07T12:32:38;7.70;99.90
56861;DHT22;42744;51.094;3.490;2022-12-07T12:35:28;7.70;99.90
56861;DHT22;42744;51.094;3.490;2022-12-07T12:38:01;7.60;99.90
56861;DHT22;42744;51.094;3.490;2022-12-07T12:40:42;7.60;99.90
56861;DHT22;42744;51.094;3.490;2022-12-07T12:43:48;7.80;99.90
56861;DHT22;42744;51.094;3.490;2022-12-07T12:51:52;8.40;99.90
56861;DHT22;42744;51.094;3.490;2022-12-07T12:54:28;8.60;99.90
56861;DHT22;42744;51.094;3.490;2022-12-07T13:02:36;9.20;99.90
56861;DHT22;42744;51.094;3.490;2022-12-07T13:28:41;8.40;99.90
56861;DHT22;42744;51.094;3.490;2022-12-07T13:33:58;8.00;99.90
56861;DHT22;42744;51.094;3.490;2022-12-07T13:36:27;8.00;99.90
56861;DHT22;42744;51.094;3.490;2022-12-07T13:38:57;7.90;99.90
56861;DHT22;42744;51.094;3.490;2022-12-07T13:41:26;7.90;99.90
56861;DHT22;42744;51.094;3.490;2022-12-07T13:49:27;7.70;99.90
56861;DHT22;42744;51.094;3.490;2022-12-07T13:51:55;7.70;99.90
56861;DHT22;42744;51.094;3.490;2022-12-07T13:54:21;7.60;99.90
56861;DHT22;42744;51.094;3.490;2022-12-07T13:56:50;7.50;99.90
56861;DHT22;42744;51.094;3.490;2022-12-07T13:59:23;7.40;99.90
56861;DHT22;42744;51.094;3.490;2022-12-07T14:01:51;7.40;99.90
56861;DHT22;42744;51.094;3.490;2022-12-07T14:04:33;7.30;99.90
56861;DHT22;42744;51.094;3.490;2022-12-07T14:07:00;7.30;99.90
56861;DHT22;42744;51.094;3.490;2022-12-07T14:09:29;7.20;99.90
56861;DHT22;42744;51.094;3.490;2022-12-07T14:11:57;7.20;99.90
56861;DHT22;42744;51.094;3.490;2022-12-07T14:14:29;7.10;99.90
56861;DHT22;42744;51.094;3.490;2022-12-07T14:17:19;7.20;99.90
56861;DHT22;42744;51.094;3.490;2022-12-07T14:19:49;7.20;99.90
56861;DHT22;42744;51.094;3.490;2022-12-07T14:27:31;7.30;99.90
56861;DHT22;42744;51.094;3.490;2022-12-07T14:30:00;7.30;99.90
56861;DHT22;42744;51.094;3.490;2022-12-07T14:32:28;7.30;99.90
56861;DHT22;42744;51.094;3.490;2022-12-07T14:37:24;7.20;99.90
56861;DHT22;42744;51.094;3.490;2022-12-07T14:39:51;7.10;99.90
56861;DHT22;42744;51.094;3.490;2022-12-07T14:42:17;7.10;99.90
56861;DHT22;42744;51.094;3.490;2022-12-07T14:44:43;7.00;99.90
56861;DHT22;42744;51.094;3.490;2022-12-07T14:47:10;6.90;99.90
56861;DHT22;42744;51.094;3.490;2022-12-07T14:49:36;6.90;99.90
56861;DHT22;42744;51.094;3.490;2022-12-07T14:52:03;6.80;99.90
56861;DHT22;42744;51.094;3.490;2022-12-07T14:54:31;6.80;99.90
56861;DHT22;42744;51.094;3.490;2022-12-07T14:56:58;6.70;99.90
56861;DHT22;42744;51.094;3.490;2022-12-07T14:59:24;6.70;99.90
56861;DHT22;42744;51.094;3.490;2022-12-07T15:01:50;6.60;99.90
56861;DHT22;42744;51.094;3.490;2022-12-07T15:04:16;6.60;99.90
56861;DHT22;42744;51.094;3.490;2022-12-07T15:06:48;6.50;99.90
56861;DHT22;42744;51.094;3.490;2022-12-07T15:09:19;6.40;99.90
56861;DHT22;42744;51.094;3.490;2022-12-07T15:11:45;6.30;99.90
56861;DHT22;42744;51.094;3.490;2022-12-07T15:14:11;6.20;99.90
56861;DHT22;42744;51.094;3.490;2022-12-07T15:16:40;6.20;99.90
56861;DHT22;42744;51.094;3.490;2022-12-07T15:19:13;6.10;99.90
56861;DHT22;42744;51.094;3.490;2022-12-07T15:21:40;5.90;99.90
56861;DHT22;42744;51.094;3.490;2022-12-07T15:24:07;5.80;99.90
56861;DHT22;42744;51.094;3.490;2022-12-07T15:26:33;5.70;99.90
56861;DHT22;42744;51.094;3.490;2022-12-07T15:28:59;5.70;99.90
56861;DHT22;42744;51.094;3.490;2022-12-07T15:31:25;5.70;99.90
56861;DHT22;42744;51.094;3.490;2022-12-07T15:33:51;5.70;99.90
56861;DHT22;42744;51.094;3.490;2022-12-07T15:36:23;5.60;99.90
56861;DHT22;42744;51.094;3.490;2022-12-07T15:38:49;5.60;99.90
56861;DHT22;42744;51.094;3.490;2022-12-07T15:41:15;5.50;99.90
56861;DHT22;42744;51.094;3.490;2022-12-07T15:43:42;5.50;99.90
56861;DHT22;42744;51.094;3.490;2022-12-07T15:46:31;5.30;99.90
56861;DHT22;42744;51.094;3.490;2022-12-07T15:48:57;5.30;99.90
56861;DHT22;42744;51.094;3.490;2022-12-07T15:51:23;5.20;99.90
56861;DHT22;42744;51.094;3.490;2022-12-07T15:53:49;5.10;99.90
56861;DHT22;42744;51.094;3.490;2022-12-07T15:56:15;5.00;99.90
56861;DHT22;42744;51.094;3.490;2022-12-07T15:58:41;5.00;99.90
56861;DHT22;42744;51.094;3.490;2022-12-07T16:01:12;5.00;99.90
56861;DHT22;42744;51.094;3.490;2022-12-07T16:03:38;4.90;99.90
56861;DHT22;42744;51.094;3.490;2022-12-07T16:06:04;4.90;99.90
56861;DHT22;42744;51.094;3.490;2022-12-07T16:08:30;4.90;99.90
56861;DHT22;42744;51.094;3.490;2022-12-07T16:10:56;4.80;99.90
56861;DHT22;42744;51.094;3.490;2022-12-07T16:13:22;4.80;99.90
56861;DHT22;42744;51.094;3.490;2022-12-07T16:15:48;4.80;99.90
56861;DHT22;42744;51.094;3.490;2022-12-07T16:18:14;4.80;99.90
56861;DHT22;42744;51.094;3.490;2022-12-07T16:20:40;4.80;99.90
56861;DHT22;42744;51.094;3.490;2022-12-07T16:23:06;4.80;99.90
56861;DHT22;42744;51.094;3.490;2022-12-07T16:25:33;4.80;99.90
56861;DHT22;42744;51.094;3.490;2022-12-07T16:27:59;4.70;99.90
56861;DHT22;42744;51.094;3.490;2022-12-07T16:30:25;4.70;99.90
56861;DHT22;42744;51.094;3.490;2022-12-07T16:32:51;4.70;99.90
56861;DHT22;42744;51.094;3.490;2022-12-07T16:35:17;4.70;99.90
56861;DHT22;42744;51.094;3.490;2022-12-07T16:37:43;4.60;99.90
56861;DHT22;42744;51.094;3.490;2022-12-07T16:40:10;4.60;99.90
56861;DHT22;42744;51.094;3.490;2022-12-07T16:42:36;4.50;99.90
56861;DHT22;42744;51.094;3.490;2022-12-07T16:45:03;4.50;99.90
56861;DHT22;42744;51.094;3.490;2022-12-07T16:47:29;4.50;99.90
56861;DHT22;42744;51.094;3.490;2022-12-07T16:49:55;4.50;99.90
56861;DHT22;42744;51.094;3.490;2022-12-07T16:52:21;4.50;99.90
56861;DHT22;42744;51.094;3.490;2022-12-07T16:54:48;4.40;99.90
56861;DHT22;42744;51.094;3.490;2022-12-07T16:57:16;4.40;99.90
56861;DHT22;42744;51.094;3.490;2022-12-07T16:59:42;4.40;99.90
56861;DHT22;42744;51.094;3.490;2022-12-07T17:02:11;4.40;99.90
56861;DHT22;42744;51.094;3.490;2022-12-07T17:04:37;4.40;99.90
56861;DHT22;42744;51.094;3.490;2022-12-07T17:07:09;4.40;99.90
56861;DHT22;42744;51.094;3.490;2022-12-07T17:09:36;4.30;99.90
56861;DHT22;42744;51.094;3.490;2022-12-07T17:12:02;4.30;99.90
56861;DHT22;42744;51.094;3.490;2022-12-07T17:14:29;4.30;99.90
56861;DHT22;42744;51.094;3.490;2022-12-07T17:17:13;4.30;99.90
56861;DHT22;42744;51.094;3.490;2022-12-07T17:19:39;4.30;99.90
56861;DHT22;42744;51.094;3.490;2022-12-07T17:22:06;4.30;99.90
56861;DHT22;42744;51.094;3.490;2022-12-07T17:24:31;4.30;99.90
56861;DHT22;42744;51.094;3.490;2022-12-07T17:26:58;4.20;99.90
56861;DHT22;42744;51.094;3.490;2022-12-07T17:29:23;4.20;99.90
56861;DHT22;42744;51.094;3.490;2022-12-07T17:31:49;4.20;99.90
56861;DHT22;42744;51.094;3.490;2022-12-07T17:34:16;4.20;99.90
56861;DHT22;42744;51.094;3.490;2022-12-07T17:36:42;4.20;99.90
56861;DHT22;42744;51.094;3.490;2022-12-07T17:39:13;4.30;99.90
56861;DHT22;42744;51.094;3.490;2022-12-07T17:41:40;4.30;99.90
56861;DHT22;42744;51.094;3.490;2022-12-07T17:44:26;4.20;99.90
56861;DHT22;42744;51.094;3.490;2022-12-07T17:46:53;4.30;99.90
56861;DHT22;42744;51.094;3.490;2022-12-07T17:49:22;4.30;99.90
56861;DHT22;42744;51.094;3.490;2022-12-07T17:51:48;4.30;99.90
56861;DHT22;42744;51.094;3.490;2022-12-07T17:54:33;4.30;99.90
56861;DHT22;42744;51.094;3.490;2022-12-07T17:56:59;4.30;99.90
56861;DHT22;42744;51.094;3.490;2022-12-07T17:59:25;4.30;99.90
56861;DHT22;42744;51.094;3.490;2022-12-07T18:01:52;4.30;99.90
56861;DHT22;42744;51.094;3.490;2022-12-07T18:04:18;4.30;99.90